sensor_id;sensor_type;location;lat;lon;timestamp;P1;durP1;ratioP1;P2;durP2;ratioP2
50709;SDS011;37033;49.994;21.992;2023-04-25T00:02:27;4.80;;;4.40;;
50709;SDS011;37033;49.994;21.992;2023-04-25T00:04:59;6.30;;;4.10;;
50709;SDS011;37033;49.994;21.992;2023-04-25T00:07:31;5.80;;;4.60;;
50709;SDS011;37033;49.994;21.992;2023-04-25T00:10:03;5.00;;;4.50;;
50709;SDS011;37033;49.994;21.992;2023-04-25T00:12:36;5.50;;;4.80;;
50709;SDS011;37033;49.994;21.992;2023-04-25T00:15:08;4.90;;;4.50;;
50709;SDS011;37033;49.994;21.992;2023-04-25T00:17:40;5.00;;;4.50;;
50709;SDS011;37033;49.994;21.992;2023-04-25T00:20:11;5.70;;;4.30;;
50709;SDS011;37033;49.994;21.992;2023-04-25T00:22:43;4.70;;;4.20;;
50709;SDS011;37033;49.994;21.992;2023-04-25T00:25:15;5.50;;;4.90;;
50709;SDS011;37033;49.994;21.992;2023-04-25T00:27:46;5.60;;;5.00;;
50709;SDS011;37033;49.994;21.992;2023-04-25T00:30:18;6.10;;;5.60;;
50709;SDS011;37033;49.994;21.992;2023-04-25T00:32:49;6.10;;;5.20;;
50709;SDS011;37033;49.994;21.992;2023-04-25T00:35:20;6.80;;;5.30;;
50709;SDS011;37033;49.994;21.992;2023-04-25T00:37:51;5.20;;;4.70;;
50709;SDS011;37033;49.994;21.992;2023-04-25T00:40:23;5.40;;;4.90;;
50709;SDS011;37033;49.994;21.992;2023-04-25T00:42:53;6.10;;;5.20;;
50709;SDS011;37033;49.994;21.992;2023-04-25T00:45:24;6.00;;;5.50;;
50709;SDS011;37033;49.994;21.992;2023-04-25T00:47:58;5.90;;;5.40;;
50709;SDS011;37033;49.994;21.992;2023-04-25T00:50:29;5.10;;;4.60;;
50709;SDS011;37033;49.994;21.992;2023-04-25T00:53:02;5.80;;;5.20;;
50709;SDS011;37033;49.994;21.992;2023-04-25T00:55:33;5.20;;;4.80;;
50709;SDS011;37033;49.994;21.992;2023-04-25T00:58:03;5.50;;;5.00;;
50709;SDS011;37033;49.994;21.992;2023-04-25T01:00:34;7.30;;;5.60;;
50709;SDS011;37033;49.994;21.992;2023-04-25T01:03:06;6.30;;;5.70;;
50709;SDS011;37033;49.994;21.992;2023-04-25T01:05:37;6.40;;;5.40;;
50709;SDS011;37033;49.994;21.992;2023-04-25T01:08:09;5.20;;;4.60;;
50709;SDS011;37033;49.994;21.992;2023-04-25T01:10:40;5.60;;;5.00;;
50709;SDS011;37033;49.994;21.992;2023-04-25T01:13:11;5.50;;;5.00;;
50709;SDS011;37033;49.994;21.992;2023-04-25T01:15:42;5.60;;;5.10;;
50709;SDS011;37033;49.994;21.992;2023-04-25T01:18:13;5.50;;;5.00;;
50709;SDS011;37033;49.994;21.992;2023-04-25T01:20:44;5.60;;;5.10;;
50709;SDS011;37033;49.994;21.992;2023-04-25T01:23:19;6.40;;;5.30;;
50709;SDS011;37033;49.994;21.992;2023-04-25T01:25:50;5.90;;;5.30;;
50709;SDS011;37033;49.994;21.992;2023-04-25T01:28:22;10.70;;;5.30;;
50709;SDS011;37033;49.994;21.992;2023-04-25T01:30:53;5.90;;;5.30;;
50709;SDS011;37033;49.994;21.992;2023-04-25T01:33:25;5.80;;;5.30;;
50709;SDS011;37033;49.994;21.992;2023-04-25T01:35:56;6.50;;;5.90;;
50709;SDS011;37033;49.994;21.992;2023-04-25T01:38:26;6.10;;;5.50;;
50709;SDS011;37033;49.994;21.992;2023-04-25T01:40:57;5.40;;;4.90;;
50709;SDS011;37033;49.994;21.992;2023-04-25T01:43:29;7.10;;;5.50;;
50709;SDS011;37033;49.994;21.992;2023-04-25T01:45:59;6.40;;;5.20;;
50709;SDS011;37033;49.994;21.992;2023-04-25T01:48:30;6.10;;;5.50;;
50709;SDS011;37033;49.994;21.992;2023-04-25T01:51:01;6.10;;;5.50;;
50709;SDS011;37033;49.994;21.992;2023-04-25T01:53:32;6.10;;;5.60;;
50709;SDS011;37033;49.994;21.992;2023-04-25T01:56:05;6.70;;;6.00;;
50709;SDS011;37033;49.994;21.992;2023-04-25T01:58:36;5.70;;;5.20;;
50709;SDS011;37033;49.994;21.992;2023-04-25T02:01:07;6.50;;;5.40;;
50709;SDS011;37033;49.994;21.992;2023-04-25T02:03:37;6.70;;;6.10;;
50709;SDS011;37033;49.994;21.992;2023-04-25T02:06:08;7.20;;;6.00;;
50709;SDS011;37033;49.994;21.992;2023-04-25T02:08:39;8.10;;;6.10;;
50709;SDS011;37033;49.994;21.992;2023-04-25T02:11:10;7.70;;;6.20;;
50709;SDS011;37033;49.994;21.992;2023-04-25T02:13:40;7.00;;;6.20;;
50709;SDS011;37033;49.994;21.992;2023-04-25T02:16:11;7.40;;;5.90;;
50709;SDS011;37033;49.994;21.992;2023-04-25T02:18:42;6.20;;;5.70;;
50709;SDS011;37033;49.994;21.992;2023-04-25T02:21:12;6.50;;;5.90;;
50709;SDS011;37033;49.994;21.992;2023-04-25T02:23:43;6.40;;;5.70;;
50709;SDS011;37033;49.994;21.992;2023-04-25T02:26:16;6.00;;;5.40;;
50709;SDS011;37033;49.994;21.992;2023-04-25T02:28:47;6.60;;;5.70;;
50709;SDS011;37033;49.994;21.992;2023-04-25T02:31:18;6.40;;;5.70;;
50709;SDS011;37033;49.994;21.992;2023-04-25T02:33:49;6.20;;;5.40;;
50709;SDS011;37033;49.994;21.992;2023-04-25T02:36:20;7.20;;;5.90;;
50709;SDS011;37033;49.994;21.992;2023-04-25T02:38:51;7.10;;;6.20;;
50709;SDS011;37033;49.994;21.992;2023-04-25T02:41:22;6.80;;;6.10;;
50709;SDS011;37033;49.994;21.992;2023-04-25T02:43:53;8.00;;;6.80;;
50709;SDS011;37033;49.994;21.992;2023-04-25T02:46:23;6.80;;;6.10;;
50709;SDS011;37033;49.994;21.992;2023-04-25T02:48:54;6.40;;;5.80;;
50709;SDS011;37033;49.994;21.992;2023-04-25T02:51:25;7.40;;;6.10;;
50709;SDS011;37033;49.994;21.992;2023-04-25T02:53:56;7.10;;;6.40;;
50709;SDS011;37033;49.994;21.992;2023-04-25T02:56:27;7.40;;;6.30;;
50709;SDS011;37033;49.994;21.992;2023-04-25T02:58:58;6.90;;;6.20;;
50709;SDS011;37033;49.994;21.992;2023-04-25T03:01:29;7.40;;;6.70;;
50709;SDS011;37033;49.994;21.992;2023-04-25T03:04:00;8.40;;;6.40;;
50709;SDS011;37033;49.994;21.992;2023-04-25T03:06:31;7.00;;;6.30;;
50709;SDS011;37033;49.994;21.992;2023-04-25T03:09:02;7.60;;;6.90;;
50709;SDS011;37033;49.994;21.992;2023-04-25T03:11:32;7.90;;;7.00;;
50709;SDS011;37033;49.994;21.992;2023-04-25T03:14:03;7.00;;;6.30;;
50709;SDS011;37033;49.994;21.992;2023-04-25T03:16:34;7.50;;;6.20;;
50709;SDS011;37033;49.994;21.992;2023-04-25T03:19:05;6.90;;;6.30;;
50709;SDS011;37033;49.994;21.992;2023-04-25T03:21:36;7.10;;;6.40;;
50709;SDS011;37033;49.994;21.992;2023-04-25T03:24:07;7.70;;;6.80;;
50709;SDS011;37033;49.994;21.992;2023-04-25T03:26:38;7.40;;;6.70;;
50709;SDS011;37033;49.994;21.992;2023-04-25T03:29:09;7.00;;;6.30;;
50709;SDS011;37033;49.994;21.992;2023-04-25T03:31:40;7.30;;;6.10;;
50709;SDS011;37033;49.994;21.992;2023-04-25T03:34:11;7.40;;;6.60;;
50709;SDS011;37033;49.994;21.992;2023-04-25T03:36:42;7.30;;;5.70;;
50709;SDS011;37033;49.994;21.992;2023-04-25T03:39:13;6.60;;;6.00;;
50709;SDS011;37033;49.994;21.992;2023-04-25T03:41:44;6.80;;;6.20;;
50709;SDS011;37033;49.994;21.992;2023-04-25T03:44:15;7.80;;;7.10;;
50709;SDS011;37033;49.994;21.992;2023-04-25T03:46:45;7.90;;;7.10;;
50709;SDS011;37033;49.994;21.992;2023-04-25T03:49:17;8.20;;;7.10;;
50709;SDS011;37033;49.994;21.992;2023-04-25T03:51:48;17.90;;;12.90;;
50709;SDS011;37033;49.994;21.992;2023-04-25T03:54:18;8.30;;;7.50;;
50709;SDS011;37033;49.994;21.992;2023-04-25T03:56:49;7.40;;;6.30;;
50709;SDS011;37033;49.994;21.992;2023-04-25T03:59:20;7.70;;;6.90;;
50709;SDS011;37033;49.994;21.992;2023-04-25T04:01:51;8.40;;;6.70;;
50709;SDS011;37033;49.994;21.992;2023-04-25T04:04:22;9.00;;;7.20;;
50709;SDS011;37033;49.994;21.992;2023-04-25T04:06:53;6.90;;;6.30;;
50709;SDS011;37033;49.994;21.992;2023-04-25T04:09:24;7.80;;;7.10;;
50709;SDS011;37033;49.994;21.992;2023-04-25T04:11:55;8.70;;;7.20;;
50709;SDS011;37033;49.994;21.992;2023-04-25T04:14:26;8.20;;;7.40;;
50709;SDS011;37033;49.994;21.992;2023-04-25T04:16:57;9.50;;;8.30;;
50709;SDS011;37033;49.994;21.992;2023-04-25T04:19:28;8.90;;;8.00;;
50709;SDS011;37033;49.994;21.992;2023-04-25T04:21:59;9.30;;;8.30;;
50709;SDS011;37033;49.994;21.992;2023-04-25T04:24:30;12.40;;;9.10;;
50709;SDS011;37033;49.994;21.992;2023-04-25T04:27:00;12.80;;;10.10;;
50709;SDS011;37033;49.994;21.992;2023-04-25T04:29:32;13.60;;;10.50;;
50709;SDS011;37033;49.994;21.992;2023-04-25T04:32:02;14.40;;;9.90;;
50709;SDS011;37033;49.994;21.992;2023-04-25T04:34:33;12.40;;;9.90;;
50709;SDS011;37033;49.994;21.992;2023-04-25T04:37:05;14.70;;;10.00;;
50709;SDS011;37033;49.994;21.992;2023-04-25T04:39:37;14.70;;;9.90;;
50709;SDS011;37033;49.994;21.992;2023-04-25T04:42:08;12.70;;;10.20;;
50709;SDS011;37033;49.994;21.992;2023-04-25T04:44:39;13.80;;;10.30;;
50709;SDS011;37033;49.994;21.992;2023-04-25T04:47:12;12.50;;;9.00;;
50709;SDS011;37033;49.994;21.992;2023-04-25T04:49:43;12.60;;;10.50;;
50709;SDS011;37033;49.994;21.992;2023-04-25T04:52:14;13.90;;;10.60;;
50709;SDS011;37033;49.994;21.992;2023-04-25T04:54:45;10.90;;;8.80;;
50709;SDS011;37033;49.994;21.992;2023-04-25T04:57:16;9.80;;;8.80;;
50709;SDS011;37033;49.994;21.992;2023-04-25T04:59:47;15.50;;;10.60;;
50709;SDS011;37033;49.994;21.992;2023-04-25T05:02:18;12.40;;;10.20;;
50709;SDS011;37033;49.994;21.992;2023-04-25T05:04:51;13.40;;;9.70;;
50709;SDS011;37033;49.994;21.992;2023-04-25T05:07:22;11.10;;;8.60;;
50709;SDS011;37033;49.994;21.992;2023-04-25T05:09:53;9.50;;;8.20;;
50709;SDS011;37033;49.994;21.992;2023-04-25T05:12:24;9.10;;;7.10;;
50709;SDS011;37033;49.994;21.992;2023-04-25T05:14:55;9.40;;;7.40;;
50709;SDS011;37033;49.994;21.992;2023-04-25T05:17:26;8.10;;;7.30;;
50709;SDS011;37033;49.994;21.992;2023-04-25T05:19:56;8.00;;;7.20;;
50709;SDS011;37033;49.994;21.992;2023-04-25T05:22:27;7.40;;;6.50;;
50709;SDS011;37033;49.994;21.992;2023-04-25T05:24:58;8.20;;;7.50;;
50709;SDS011;37033;49.994;21.992;2023-04-25T05:27:30;7.70;;;6.90;;
50709;SDS011;37033;49.994;21.992;2023-04-25T05:30:01;8.60;;;6.80;;
50709;SDS011;37033;49.994;21.992;2023-04-25T05:32:35;8.20;;;6.80;;
50709;SDS011;37033;49.994;21.992;2023-04-25T05:35:07;8.30;;;7.30;;
50709;SDS011;37033;49.994;21.992;2023-04-25T05:37:39;8.70;;;7.30;;
50709;SDS011;37033;49.994;21.992;2023-04-25T05:40:11;7.10;;;6.40;;
50709;SDS011;37033;49.994;21.992;2023-04-25T05:42:42;7.70;;;6.70;;
50709;SDS011;37033;49.994;21.992;2023-04-25T05:45:13;9.50;;;6.90;;
50709;SDS011;37033;49.994;21.992;2023-04-25T05:47:45;7.60;;;6.90;;
50709;SDS011;37033;49.994;21.992;2023-04-25T05:50:17;6.90;;;6.20;;
50709;SDS011;37033;49.994;21.992;2023-04-25T05:52:48;8.00;;;7.20;;
50709;SDS011;37033;49.994;21.992;2023-04-25T05:55:19;8.70;;;7.10;;
50709;SDS011;37033;49.994;21.992;2023-04-25T05:57:50;10.30;;;8.20;;
50709;SDS011;37033;49.994;21.992;2023-04-25T06:00:21;7.30;;;6.70;;
50709;SDS011;37033;49.994;21.992;2023-04-25T06:02:52;9.90;;;7.60;;
50709;SDS011;37033;49.994;21.992;2023-04-25T06:05:23;8.20;;;7.40;;
50709;SDS011;37033;49.994;21.992;2023-04-25T06:07:54;8.00;;;7.20;;
50709;SDS011;37033;49.994;21.992;2023-04-25T06:10:25;8.80;;;7.90;;
50709;SDS011;37033;49.994;21.992;2023-04-25T06:12:56;9.20;;;7.30;;
50709;SDS011;37033;49.994;21.992;2023-04-25T06:15:27;8.70;;;7.80;;
50709;SDS011;37033;49.994;21.992;2023-04-25T06:18:00;8.40;;;7.30;;
50709;SDS011;37033;49.994;21.992;2023-04-25T06:20:31;9.20;;;8.00;;
50709;SDS011;37033;49.994;21.992;2023-04-25T06:23:02;10.50;;;9.00;;
50709;SDS011;37033;49.994;21.992;2023-04-25T06:25:33;9.40;;;8.50;;
50709;SDS011;37033;49.994;21.992;2023-04-25T06:28:04;9.60;;;8.70;;
50709;SDS011;37033;49.994;21.992;2023-04-25T06:30:35;13.30;;;10.70;;
50709;SDS011;37033;49.994;21.992;2023-04-25T06:33:06;12.80;;;11.40;;
50709;SDS011;37033;49.994;21.992;2023-04-25T06:35:37;15.90;;;11.80;;
50709;SDS011;37033;49.994;21.992;2023-04-25T06:38:08;13.50;;;11.40;;
50709;SDS011;37033;49.994;21.992;2023-04-25T06:40:39;14.80;;;12.30;;
50709;SDS011;37033;49.994;21.992;2023-04-25T06:43:10;21.30;;;15.10;;
50709;SDS011;37033;49.994;21.992;2023-04-25T06:45:41;24.60;;;18.50;;
50709;SDS011;37033;49.994;21.992;2023-04-25T06:48:12;22.90;;;16.80;;
50709;SDS011;37033;49.994;21.992;2023-04-25T06:50:43;24.90;;;18.50;;
50709;SDS011;37033;49.994;21.992;2023-04-25T06:53:14;19.10;;;15.60;;
50709;SDS011;37033;49.994;21.992;2023-04-25T06:55:45;11.60;;;9.40;;
50709;SDS011;37033;49.994;21.992;2023-04-25T06:58:16;9.70;;;8.80;;
50709;SDS011;37033;49.994;21.992;2023-04-25T07:00:46;6.80;;;6.10;;
50709;SDS011;37033;49.994;21.992;2023-04-25T07:03:17;7.30;;;6.10;;
50709;SDS011;37033;49.994;21.992;2023-04-25T07:05:48;5.60;;;5.10;;
50709;SDS011;37033;49.994;21.992;2023-04-25T07:08:19;5.00;;;4.50;;
50709;SDS011;37033;49.994;21.992;2023-04-25T07:10:50;7.00;;;4.80;;
50709;SDS011;37033;49.994;21.992;2023-04-25T07:13:21;5.00;;;4.00;;
50709;SDS011;37033;49.994;21.992;2023-04-25T07:15:54;4.80;;;4.00;;
50709;SDS011;37033;49.994;21.992;2023-04-25T07:18:25;3.80;;;3.50;;
50709;SDS011;37033;49.994;21.992;2023-04-25T07:20:56;2.90;;;2.70;;
50709;SDS011;37033;49.994;21.992;2023-04-25T07:23:27;5.60;;;2.80;;
50709;SDS011;37033;49.994;21.992;2023-04-25T07:25:59;2.90;;;2.40;;
50709;SDS011;37033;49.994;21.992;2023-04-25T07:28:30;2.40;;;2.20;;
50709;SDS011;37033;49.994;21.992;2023-04-25T07:31:00;2.90;;;2.60;;
50709;SDS011;37033;49.994;21.992;2023-04-25T07:33:31;3.50;;;1.90;;
50709;SDS011;37033;49.994;21.992;2023-04-25T07:36:03;2.60;;;2.20;;
50709;SDS011;37033;49.994;21.992;2023-04-25T07:38:35;2.60;;;2.00;;
50709;SDS011;37033;49.994;21.992;2023-04-25T07:41:05;3.50;;;2.20;;
50709;SDS011;37033;49.994;21.992;2023-04-25T07:43:36;2.20;;;2.00;;
50709;SDS011;37033;49.994;21.992;2023-04-25T07:46:07;2.00;;;1.80;;
50709;SDS011;37033;49.994;21.992;2023-04-25T07:48:38;2.50;;;2.30;;
50709;SDS011;37033;49.994;21.992;2023-04-25T07:51:09;2.20;;;1.90;;
50709;SDS011;37033;49.994;21.992;2023-04-25T07:53:39;2.10;;;1.90;;
50709;SDS011;37033;49.994;21.992;2023-04-25T07:56:10;2.10;;;1.90;;
50709;SDS011;37033;49.994;21.992;2023-04-25T07:58:41;1.80;;;1.60;;
50709;SDS011;37033;49.994;21.992;2023-04-25T08:01:12;2.40;;;2.20;;
50709;SDS011;37033;49.994;21.992;2023-04-25T08:03:43;3.00;;;2.70;;
50709;SDS011;37033;49.994;21.992;2023-04-25T08:06:14;3.80;;;2.60;;
50709;SDS011;37033;49.994;21.992;2023-04-25T08:08:45;2.40;;;2.10;;
50709;SDS011;37033;49.994;21.992;2023-04-25T08:11:15;4.00;;;3.30;;
50709;SDS011;37033;49.994;21.992;2023-04-25T08:13:46;5.70;;;3.70;;
50709;SDS011;37033;49.994;21.992;2023-04-25T08:16:17;2.80;;;2.60;;
50709;SDS011;37033;49.994;21.992;2023-04-25T08:18:49;2.70;;;2.50;;
50709;SDS011;37033;49.994;21.992;2023-04-25T08:21:20;2.70;;;2.40;;
50709;SDS011;37033;49.994;21.992;2023-04-25T08:23:51;2.80;;;2.60;;
50709;SDS011;37033;49.994;21.992;2023-04-25T08:26:22;2.90;;;2.70;;
50709;SDS011;37033;49.994;21.992;2023-04-25T08:28:55;2.90;;;2.70;;
50709;SDS011;37033;49.994;21.992;2023-04-25T08:31:26;3.40;;;3.10;;
50709;SDS011;37033;49.994;21.992;2023-04-25T08:33:57;4.10;;;3.80;;
50709;SDS011;37033;49.994;21.992;2023-04-25T08:36:28;3.00;;;2.70;;
50709;SDS011;37033;49.994;21.992;2023-04-25T08:38:59;2.80;;;2.40;;
50709;SDS011;37033;49.994;21.992;2023-04-25T08:41:30;3.60;;;3.30;;
50709;SDS011;37033;49.994;21.992;2023-04-25T08:44:01;3.00;;;2.70;;
50709;SDS011;37033;49.994;21.992;2023-04-25T08:46:36;3.10;;;2.80;;
50709;SDS011;37033;49.994;21.992;2023-04-25T08:49:08;3.60;;;3.00;;
50709;SDS011;37033;49.994;21.992;2023-04-25T08:51:44;4.50;;;3.20;;
50709;SDS011;37033;49.994;21.992;2023-04-25T08:54:17;4.20;;;3.80;;
50709;SDS011;37033;49.994;21.992;2023-04-25T08:56:56;3.60;;;3.30;;
50709;SDS011;37033;49.994;21.992;2023-04-25T08:59:31;3.90;;;3.60;;
50709;SDS011;37033;49.994;21.992;2023-04-25T09:02:06;3.90;;;3.50;;
50709;SDS011;37033;49.994;21.992;2023-04-25T09:04:42;3.10;;;2.80;;
50709;SDS011;37033;49.994;21.992;2023-04-25T09:07:16;3.50;;;3.00;;
50709;SDS011;37033;49.994;21.992;2023-04-25T09:09:50;3.50;;;3.20;;
50709;SDS011;37033;49.994;21.992;2023-04-25T09:12:21;3.50;;;3.20;;
50709;SDS011;37033;49.994;21.992;2023-04-25T09:15:02;3.70;;;3.40;;
50709;SDS011;37033;49.994;21.992;2023-04-25T09:17:35;3.50;;;3.20;;
50709;SDS011;37033;49.994;21.992;2023-04-25T09:20:09;3.40;;;3.10;;
50709;SDS011;37033;49.994;21.992;2023-04-25T09:22:42;3.70;;;2.90;;
50709;SDS011;37033;49.994;21.992;2023-04-25T09:25:16;4.00;;;3.60;;
50709;SDS011;37033;49.994;21.992;2023-04-25T09:27:50;3.50;;;3.20;;
50709;SDS011;37033;49.994;21.992;2023-04-25T09:30:29;3.90;;;3.30;;
50709;SDS011;37033;49.994;21.992;2023-04-25T09:33:05;4.30;;;3.90;;
50709;SDS011;37033;49.994;21.992;2023-04-25T09:35:37;4.30;;;3.90;;
50709;SDS011;37033;49.994;21.992;2023-04-25T09:38:13;5.20;;;4.50;;
50709;SDS011;37033;49.994;21.992;2023-04-25T09:40:46;5.90;;;3.90;;
50709;SDS011;37033;49.994;21.992;2023-04-25T09:43:20;5.90;;;4.60;;
50709;SDS011;37033;49.994;21.992;2023-04-25T09:48:26;4.90;;;4.00;;
50709;SDS011;37033;49.994;21.992;2023-04-25T09:51:07;4.70;;;4.30;;
50709;SDS011;37033;49.994;21.992;2023-04-25T09:53:39;5.60;;;4.80;;
50709;SDS011;37033;49.994;21.992;2023-04-25T09:56:17;5.80;;;5.00;;
50709;SDS011;37033;49.994;21.992;2023-04-25T09:58:51;7.40;;;4.90;;
50709;SDS011;37033;49.994;21.992;2023-04-25T10:01:24;7.60;;;5.10;;
50709;SDS011;37033;49.994;21.992;2023-04-25T10:03:57;5.90;;;5.40;;
50709;SDS011;37033;49.994;21.992;2023-04-25T10:06:29;6.10;;;5.40;;
50709;SDS011;37033;49.994;21.992;2023-04-25T10:09:03;5.50;;;5.00;;
50709;SDS011;37033;49.994;21.992;2023-04-25T10:11:38;6.10;;;5.60;;
50709;SDS011;37033;49.994;21.992;2023-04-25T10:14:09;6.30;;;5.80;;
50709;SDS011;37033;49.994;21.992;2023-04-25T10:16:43;6.20;;;5.60;;
50709;SDS011;37033;49.994;21.992;2023-04-25T10:19:16;5.30;;;4.80;;
50709;SDS011;37033;49.994;21.992;2023-04-25T10:21:50;5.80;;;5.30;;
50709;SDS011;37033;49.994;21.992;2023-04-25T10:24:23;7.10;;;5.20;;
50709;SDS011;37033;49.994;21.992;2023-04-25T10:26:56;6.60;;;5.90;;
50709;SDS011;37033;49.994;21.992;2023-04-25T10:29:29;6.00;;;5.40;;
50709;SDS011;37033;49.994;21.992;2023-04-25T10:32:01;8.10;;;5.80;;
50709;SDS011;37033;49.994;21.992;2023-04-25T10:34:39;6.60;;;5.90;;
50709;SDS011;37033;49.994;21.992;2023-04-25T10:37:14;6.60;;;6.00;;
50709;SDS011;37033;49.994;21.992;2023-04-25T10:39:50;9.30;;;6.50;;
50709;SDS011;37033;49.994;21.992;2023-04-25T10:42:24;6.60;;;6.00;;
50709;SDS011;37033;49.994;21.992;2023-04-25T10:45:06;12.50;;;6.60;;
50709;SDS011;37033;49.994;21.992;2023-04-25T10:47:43;6.80;;;6.20;;
50709;SDS011;37033;49.994;21.992;2023-04-25T10:50:15;11.60;;;8.60;;
50709;SDS011;37033;49.994;21.992;2023-04-25T10:52:46;7.60;;;6.80;;
50709;SDS011;37033;49.994;21.992;2023-04-25T10:55:17;7.50;;;6.70;;
50709;SDS011;37033;49.994;21.992;2023-04-25T10:57:49;8.80;;;7.60;;
50709;SDS011;37033;49.994;21.992;2023-04-25T11:00:20;8.20;;;7.10;;
50709;SDS011;37033;49.994;21.992;2023-04-25T11:05:29;8.80;;;7.90;;
50709;SDS011;37033;49.994;21.992;2023-04-25T11:08:02;9.60;;;7.70;;
50709;SDS011;37033;49.994;21.992;2023-04-25T11:10:39;9.20;;;8.30;;
50709;SDS011;37033;49.994;21.992;2023-04-25T11:13:11;9.90;;;8.10;;
50709;SDS011;37033;49.994;21.992;2023-04-25T11:15:42;9.90;;;8.90;;
50709;SDS011;37033;49.994;21.992;2023-04-25T11:18:16;8.60;;;7.70;;
50709;SDS011;37033;49.994;21.992;2023-04-25T11:20:50;8.80;;;7.50;;
50709;SDS011;37033;49.994;21.992;2023-04-25T11:23:27;7.90;;;6.80;;
50709;SDS011;37033;49.994;21.992;2023-04-25T11:25:58;8.40;;;7.60;;
50709;SDS011;37033;49.994;21.992;2023-04-25T11:28:29;8.00;;;7.30;;
50709;SDS011;37033;49.994;21.992;2023-04-25T11:31:03;9.60;;;8.10;;
50709;SDS011;37033;49.994;21.992;2023-04-25T11:33:34;9.00;;;8.10;;
50709;SDS011;37033;49.994;21.992;2023-04-25T11:36:07;9.80;;;8.80;;
50709;SDS011;37033;49.994;21.992;2023-04-25T11:38:38;11.80;;;9.00;;
50709;SDS011;37033;49.994;21.992;2023-04-25T11:41:12;10.70;;;8.20;;
50709;SDS011;37033;49.994;21.992;2023-04-25T11:43:44;8.50;;;7.70;;
50709;SDS011;37033;49.994;21.992;2023-04-25T11:46:15;9.90;;;8.80;;
50709;SDS011;37033;49.994;21.992;2023-04-25T11:48:47;8.00;;;7.30;;
50709;SDS011;37033;49.994;21.992;2023-04-25T11:51:19;8.60;;;7.80;;
50709;SDS011;37033;49.994;21.992;2023-04-25T11:53:53;10.40;;;8.00;;
50709;SDS011;37033;49.994;21.992;2023-04-25T11:56:24;8.80;;;7.90;;
50709;SDS011;37033;49.994;21.992;2023-04-25T11:58:58;8.80;;;7.90;;
50709;SDS011;37033;49.994;21.992;2023-04-25T12:01:30;7.40;;;6.50;;
50709;SDS011;37033;49.994;21.992;2023-04-25T12:04:11;8.40;;;7.10;;
50709;SDS011;37033;49.994;21.992;2023-04-25T12:06:44;8.40;;;7.40;;
50709;SDS011;37033;49.994;21.992;2023-04-25T12:09:17;8.60;;;7.80;;
50709;SDS011;37033;49.994;21.992;2023-04-25T12:11:55;8.10;;;7.30;;
50709;SDS011;37033;49.994;21.992;2023-04-25T12:14:30;8.30;;;7.50;;
50709;SDS011;37033;49.994;21.992;2023-04-25T12:17:03;9.00;;;7.60;;
50709;SDS011;37033;49.994;21.992;2023-04-25T12:19:36;8.90;;;7.80;;
50709;SDS011;37033;49.994;21.992;2023-04-25T12:22:19;9.50;;;8.10;;
50709;SDS011;37033;49.994;21.992;2023-04-25T12:24:52;8.50;;;6.80;;
50709;SDS011;37033;49.994;21.992;2023-04-25T12:27:26;7.30;;;6.60;;
50709;SDS011;37033;49.994;21.992;2023-04-25T12:29:59;8.40;;;7.20;;
50709;SDS011;37033;49.994;21.992;2023-04-25T12:32:31;8.30;;;7.00;;
50709;SDS011;37033;49.994;21.992;2023-04-25T12:35:06;7.30;;;6.60;;
50709;SDS011;37033;49.994;21.992;2023-04-25T12:37:37;8.00;;;6.20;;
50709;SDS011;37033;49.994;21.992;2023-04-25T12:40:11;7.80;;;6.40;;
50709;SDS011;37033;49.994;21.992;2023-04-25T12:42:42;9.00;;;7.10;;
50709;SDS011;37033;49.994;21.992;2023-04-25T12:45:15;7.80;;;7.00;;
50709;SDS011;37033;49.994;21.992;2023-04-25T12:47:46;8.00;;;7.10;;
50709;SDS011;37033;49.994;21.992;2023-04-25T12:50:18;9.00;;;8.00;;
50709;SDS011;37033;49.994;21.992;2023-04-25T12:52:49;8.50;;;7.70;;
50709;SDS011;37033;49.994;21.992;2023-04-25T12:55:19;9.80;;;7.20;;
50709;SDS011;37033;49.994;21.992;2023-04-25T12:57:50;8.40;;;7.50;;
50709;SDS011;37033;49.994;21.992;2023-04-25T13:00:22;9.20;;;7.80;;
50709;SDS011;37033;49.994;21.992;2023-04-25T13:02:54;11.70;;;7.60;;
50709;SDS011;37033;49.994;21.992;2023-04-25T13:05:25;9.30;;;8.40;;
50709;SDS011;37033;49.994;21.992;2023-04-25T13:07:58;10.10;;;8.10;;
50709;SDS011;37033;49.994;21.992;2023-04-25T13:10:40;15.70;;;9.20;;
50709;SDS011;37033;49.994;21.992;2023-04-25T13:13:11;9.50;;;7.80;;
50709;SDS011;37033;49.994;21.992;2023-04-25T13:15:42;10.10;;;8.60;;
50709;SDS011;37033;49.994;21.992;2023-04-25T13:18:16;10.20;;;8.80;;
50709;SDS011;37033;49.994;21.992;2023-04-25T13:20:47;10.90;;;9.70;;
50709;SDS011;37033;49.994;21.992;2023-04-25T13:23:18;11.50;;;10.20;;
50709;SDS011;37033;49.994;21.992;2023-04-25T13:25:54;12.20;;;11.00;;
50709;SDS011;37033;49.994;21.992;2023-04-25T13:28:26;11.90;;;9.80;;
50709;SDS011;37033;49.994;21.992;2023-04-25T13:30:57;13.50;;;11.70;;
50709;SDS011;37033;49.994;21.992;2023-04-25T13:33:28;11.70;;;10.20;;
50709;SDS011;37033;49.994;21.992;2023-04-25T13:36:00;12.60;;;10.40;;
50709;SDS011;37033;49.994;21.992;2023-04-25T13:38:31;13.70;;;10.00;;
50709;SDS011;37033;49.994;21.992;2023-04-25T13:41:02;12.10;;;8.40;;
50709;SDS011;37033;49.994;21.992;2023-04-25T13:43:35;11.20;;;9.10;;
50709;SDS011;37033;49.994;21.992;2023-04-25T13:46:09;13.60;;;9.90;;
50709;SDS011;37033;49.994;21.992;2023-04-25T13:48:41;11.50;;;9.80;;
50709;SDS011;37033;49.994;21.992;2023-04-25T13:51:16;10.70;;;8.70;;
50709;SDS011;37033;49.994;21.992;2023-04-25T13:53:51;13.10;;;9.60;;
50709;SDS011;37033;49.994;21.992;2023-04-25T13:56:22;14.10;;;9.10;;
50709;SDS011;37033;49.994;21.992;2023-04-25T13:58:53;12.00;;;8.90;;
50709;SDS011;37033;49.994;21.992;2023-04-25T14:01:24;10.70;;;8.80;;
50709;SDS011;37033;49.994;21.992;2023-04-25T14:04:01;8.90;;;8.00;;
50709;SDS011;37033;49.994;21.992;2023-04-25T14:06:32;10.50;;;8.60;;
50709;SDS011;37033;49.994;21.992;2023-04-25T14:09:04;8.80;;;7.90;;
50709;SDS011;37033;49.994;21.992;2023-04-25T14:11:37;9.40;;;8.10;;
50709;SDS011;37033;49.994;21.992;2023-04-25T14:14:11;14.90;;;10.50;;
50709;SDS011;37033;49.994;21.992;2023-04-25T14:16:43;11.90;;;8.20;;
50709;SDS011;37033;49.994;21.992;2023-04-25T14:19:16;9.60;;;8.00;;
50709;SDS011;37033;49.994;21.992;2023-04-25T14:21:47;10.50;;;8.30;;
50709;SDS011;37033;49.994;21.992;2023-04-25T14:24:18;11.30;;;7.50;;
50709;SDS011;37033;49.994;21.992;2023-04-25T14:26:48;12.60;;;7.90;;
50709;SDS011;37033;49.994;21.992;2023-04-25T14:29:19;11.30;;;8.60;;
50709;SDS011;37033;49.994;21.992;2023-04-25T14:31:50;12.30;;;8.90;;
50709;SDS011;37033;49.994;21.992;2023-04-25T14:34:22;13.40;;;7.40;;
50709;SDS011;37033;49.994;21.992;2023-04-25T14:36:52;12.00;;;7.40;;
50709;SDS011;37033;49.994;21.992;2023-04-25T14:39:25;14.10;;;7.70;;
50709;SDS011;37033;49.994;21.992;2023-04-25T14:41:56;11.70;;;9.10;;
50709;SDS011;37033;49.994;21.992;2023-04-25T14:44:27;9.00;;;6.70;;
50709;SDS011;37033;49.994;21.992;2023-04-25T14:46:58;7.30;;;6.40;;
50709;SDS011;37033;49.994;21.992;2023-04-25T14:49:29;7.00;;;6.00;;
50709;SDS011;37033;49.994;21.992;2023-04-25T14:52:00;6.70;;;6.00;;
50709;SDS011;37033;49.994;21.992;2023-04-25T14:54:31;5.70;;;5.10;;
50709;SDS011;37033;49.994;21.992;2023-04-25T14:57:03;7.40;;;6.10;;
50709;SDS011;37033;49.994;21.992;2023-04-25T14:59:34;9.70;;;4.80;;
50709;SDS011;37033;49.994;21.992;2023-04-25T15:02:05;7.00;;;4.90;;
50709;SDS011;37033;49.994;21.992;2023-04-25T15:04:36;7.20;;;5.30;;